Time;durP1;ratioP1;P1;durP2;ratioP2;P2;SDS_P1;SDS_P2;PMS_P1;PMS_P2;Temp;Humidity;BMP_temperature;BMP_pressure;BME280_temperature;BME280_humidity;BME280_pressure;Samples;Min_cycle;Max_cycle;Signal;HPM_P1;HPM_P2
2021/06/08 00:01:05;;;;;;;9.93;6.70;;;;;;;25.63;40.93;101828.69;5096548;28;20496;-50
2021/06/08 00:03:32;;;;;;;9.70;7.10;;;;;;;25.32;41.46;101826.13;5094119;28;20484;-46
2021/06/08 00:05:59;;;;;;;10.67;7.27;;;;;;;25.44;40.87;101826.09;5096544;28;20458;-49
2021/06/08 00:08:27;;;;;;;13.27;7.70;;;;;;;25.54;41.22;101826.09;5095553;28;20475;-50
2021/06/08 00:10:54;;;;;;;10.70;8.20;;;;;;;25.63;41.16;101826.03;5096643;28;20786;-51
2021/06/08 00:13:22;;;;;;;13.57;8.77;;;;;;;25.90;41.65;101824.16;5095492;28;20482;-50
2021/06/08 00:15:49;;;;;;;14.67;9.47;;;;;;;26.09;41.45;101819.63;5096043;28;20470;-47
2021/06/08 00:18:16;;;;;;;15.13;8.50;;;;;;;26.08;41.22;101827.56;5095055;28;20477;-48
2021/06/08 00:20:43;;;;;;;12.17;9.80;;;;;;;25.96;42.86;101828.53;5096349;28;20490;-48
2021/06/08 00:23:10;;;;;;;11.13;8.13;;;;;;;26.04;41.27;101828.50;5095258;28;20773;-50
2021/06/08 00:25:39;;;;;;;14.57;10.07;;;;;;;26.02;41.95;101823.22;5095972;28;20471;-50
2021/06/08 00:28:08;;;;;;;12.10;8.87;;;;;;;25.70;41.90;101817.22;5094684;28;20480;-50
2021/06/08 00:30:37;;;;;;;12.43;9.50;;;;;;;25.63;42.78;101826.03;5096433;28;20460;-50
2021/06/08 00:33:04;;;;;;;11.37;8.73;;;;;;;25.78;42.35;101821.59;5095226;28;20559;-49
2021/06/08 00:35:32;;;;;;;12.67;9.33;;;;;;;25.49;43.35;101819.03;5094516;28;20470;-47
2021/06/08 00:37:59;;;;;;;8.77;6.97;;;;;;;25.09;43.40;101819.16;5093549;28;20531;-48
2021/06/08 00:40:27;;;;;;;18.63;10.50;;;;;;;25.54;43.34;101820.81;5093801;28;20792;-49
2021/06/08 00:42:54;;;;;;;13.00;9.30;;;;;;;25.60;43.07;101823.44;5081310;28;20484;-48
2021/06/08 00:45:22;;;;;;;13.10;9.97;;;;;;;25.45;43.87;101816.41;5094250;28;20463;-51
2021/06/08 00:47:51;;;;;;;13.60;8.40;;;;;;;25.33;43.74;101812.06;5093692;28;20485;-45
2021/06/08 00:50:19;;;;;;;16.60;9.50;;;;;;;25.45;43.37;101819.94;5094302;28;20500;-50
2021/06/08 00:52:51;;;;;;;14.10;10.80;;;;;;;25.28;44.29;101814.69;5093354;28;20476;-48
2021/06/08 00:55:18;;;;;;;11.77;8.07;;;;;;;25.46;43.78;101813.78;5094150;28;20466;-51
2021/06/08 00:57:45;;;;;;;11.50;8.83;;;;;;;25.20;43.85;101819.13;5093107;28;20494;-51
2021/06/08 01:00:13;;;;;;;14.07;10.20;;;;;;;25.25;43.83;101813.84;5094295;28;20482;-48
2021/06/08 01:02:41;;;;;;;12.40;8.60;;;;;;;25.43;44.15;101813.78;5093437;28;20479;-48
2021/06/08 01:05:11;;;;;;;11.80;8.77;;;;;;;25.17;44.36;101812.09;5094217;28;20457;-48
2021/06/08 01:07:38;;;;;;;12.60;8.80;;;;;;;25.51;43.48;101820.78;5092900;28;20485;-49
2021/06/08 01:10:07;;;;;;;13.67;9.10;;;;;;;25.20;44.46;101817.38;5094371;28;20486;-46
2021/06/08 01:12:35;;;;;;;15.00;10.77;;;;;;;25.40;43.82;101819.09;5093197;28;20483;-49
2021/06/08 01:15:04;;;;;;;17.33;10.20;;;;;;;25.53;44.24;101814.66;5094033;28;20464;-52
2021/06/08 01:17:31;;;;;;;14.20;10.20;;;;;;;25.33;44.39;101812.06;5093015;28;20772;-51
2021/06/08 01:19:59;;;;;;;12.37;9.70;;;;;;;24.83;46.03;101817.47;5094064;28;20490;-48
2021/06/08 01:22:27;;;;;;;13.87;10.90;;;;;;;24.81;45.84;101808.63;5083707;28;20474;-48
2021/06/08 01:24:55;;;;;;;15.60;10.33;;;;;;;24.94;45.52;101813.03;5075288;28;20465;-51
2021/06/08 01:27:23;;;;;;;16.50;10.63;;;;;;;24.95;45.64;101816.53;5073761;28;20469;-50
2021/06/08 01:29:52;;;;;;;17.70;11.47;;;;;;;24.96;45.52;101812.16;5075157;28;20490;-47
2021/06/08 01:32:24;;;;;;;15.50;10.60;;;;;;;24.80;46.08;101815.69;5074236;28;20487;-49
2021/06/08 01:34:52;;;;;;;15.60;10.70;;;;;;;24.92;45.95;101817.44;5087622;28;20771;-52
2021/06/08 01:37:19;;;;;;;13.53;9.50;;;;;;;25.00;45.82;101816.53;5092122;28;20469;-49
2021/06/08 01:39:47;;;;;;;16.70;10.00;;;;;;;24.87;46.22;101810.41;5095474;28;20475;-52
2021/06/08 01:42:16;;;;;;;13.93;11.10;;;;;;;25.19;45.16;101809.47;5094670;28;20479;-48
2021/06/08 01:44:44;;;;;;;14.97;10.27;;;;;;;24.87;46.11;101813.91;5095332;28;20882;-45
2021/06/08 01:47:11;;;;;;;17.20;10.47;;;;;;;24.79;46.42;101811.28;5094041;28;20475;-45
2021/06/08 01:49:39;;;;;;;13.80;10.47;;;;;;;24.66;46.41;101825.34;5095337;28;20490;-49
2021/06/08 01:52:13;;;;;;;14.33;10.53;;;;;;;24.94;46.03;101815.69;5093382;28;20472;-48
2021/06/08 01:54:48;;;;;;;18.30;11.03;;;;;;;24.35;47.29;101820.94;5095362;28;20452;-48
2021/06/08 01:57:19;;;;;;;12.23;10.40;;;;;;;24.91;46.38;101820.94;5093417;28;20864;-49
2021/06/08 01:59:53;;;;;;;15.33;11.20;;;;;;;25.06;46.27;101819.16;5095216;28;20478;-49
2021/06/08 02:02:26;;;;;;;19.57;11.67;;;;;;;25.08;45.39;101817.41;5092691;28;20482;-50
2021/06/08 02:05:03;;;;;;;14.83;11.27;;;;;;;25.05;45.47;101814.78;5095358;28;20457;-46
2021/06/08 02:07:35;;;;;;;17.00;11.10;;;;;;;24.74;46.16;101809.50;5093548;28;20480;-48
2021/06/08 02:10:21;;;;;;;15.03;11.03;;;;;;;24.58;47.18;101814.81;5095027;28;20485;-49
2021/06/08 02:12:52;;;;;;;15.10;10.20;;;;;;;24.63;46.87;101815.69;5076342;28;20791;-49
2021/06/08 02:15:20;;;;;;;15.00;10.40;;;;;;;24.62;46.90;101819.19;5078525;28;20460;-48
2021/06/08 02:17:49;;;;;;;13.63;10.77;;;;;;;24.58;46.90;101822.72;5077684;28;20470;-50
2021/06/08 02:20:20;;;;;;;14.23;10.20;;;;;;;25.19;45.82;101820.03;5078380;28;20546;-48
2021/06/08 02:22:52;;;;;;;13.20;9.93;;;;;;;24.93;46.36;101827.09;5053021;28;20498;-48
2021/06/08 02:25:24;;;;;;;13.50;9.40;;;;;;;24.73;46.83;101836.78;5078438;28;20454;-48
2021/06/08 02:27:51;;;;;;;15.77;11.40;;;;;;;24.60;47.13;101836.78;5076337;28;20507;-50
2021/06/08 02:30:19;;;;;;;13.77;10.17;;;;;;;24.77;46.12;101833.25;5078220;28;20787;-50
2021/06/08 02:32:47;;;;;;;17.20;11.70;;;;;;;24.11;48.00;101845.50;5075092;28;20959;-49
2021/06/08 02:35:15;;;;;;;14.80;10.90;;;;;;;24.38;47.40;101836.78;5078603;28;20461;-51
2021/06/08 02:37:42;;;;;;;14.80;9.73;;;;;;;24.71;46.59;101836.75;5070079;28;20481;-47
2021/06/08 02:40:12;;;;;;;13.53;10.60;;;;;;;24.63;46.95;101839.44;5077931;28;20476;-48
2021/06/08 02:42:43;;;;;;;14.37;10.23;;;;;;;24.52;47.18;101838.53;5070859;28;20566;-48
2021/06/08 02:45:11;;;;;;;14.33;9.30;;;;;;;24.67;46.52;101837.66;5078033;28;20455;-49
2021/06/08 02:47:39;;;;;;;15.70;10.50;;;;;;;24.68;46.80;101835.00;5076777;28;20480;-48
2021/06/08 02:50:08;;;;;;;18.53;10.03;;;;;;;24.59;47.16;101845.56;5078096;28;20565;-48
2021/06/08 02:52:35;;;;;;;12.53;9.30;;;;;;;24.68;46.62;101835.00;5076925;28;20492;-50
2021/06/08 02:55:04;;;;;;;17.50;9.30;;;;;;;24.66;46.52;101843.81;5078046;28;20747;-46
2021/06/08 02:57:33;;;;;;;14.30;10.93;;;;;;;24.94;46.20;101842.06;5076303;28;20562;-48
2021/06/08 03:00:05;;;;;;;18.00;12.20;;;;;;;24.59;47.04;101842.03;5077971;28;20491;-51
2021/06/08 03:02:33;;;;;;;12.87;9.10;;;;;;;24.74;46.97;101838.53;5057545;28;20514;-46
2021/06/08 03:05:03;;;;;;;13.73;10.30;;;;;;;24.75;46.45;101841.16;5077755;28;20458;-48
2021/06/08 03:07:33;;;;;;;14.30;9.00;;;;;;;24.96;46.48;101838.56;5076507;28;20518;-46
2021/06/08 03:10:03;;;;;;;14.37;9.43;;;;;;;24.78;45.85;101845.56;5077579;28;20479;-50
2021/06/08 03:12:34;;;;;;;13.40;9.70;;;;;;;24.39;46.66;101835.88;5077197;28;20593;-51
2021/06/08 03:15:05;;;;;;;11.57;8.57;;;;;;;24.52;46.51;101838.53;5077715;28;20468;-53
2021/06/08 03:17:33;;;;;;;11.33;8.50;;;;;;;24.36;46.78;101837.66;5076256;28;20478;-49
2021/06/08 03:20:10;;;;;;;12.87;8.73;;;;;;;24.60;46.63;101842.03;5077455;28;20492;-51
2021/06/08 03:22:40;;;;;;;14.73;9.70;;;;;;;24.45;46.68;101840.28;5076015;28;20478;-49
2021/06/08 03:25:09;;;;;;;19.87;9.80;;;;;;;24.50;46.59;101840.31;5083970;28;20774;-47
2021/06/08 03:27:36;;;;;;;11.10;8.70;;;;;;;24.11;47.36;101849.00;5096381;28;20479;-52
2021/06/08 03:30:06;;;;;;;14.80;9.40;;;;;;;24.40;46.82;101842.91;5097394;28;20476;-51
2021/06/08 03:32:35;;;;;;;14.07;9.47;;;;;;;24.25;46.96;101845.56;5096183;28;20466;-47
2021/06/08 03:35:03;;;;;;;12.03;9.50;;;;;;;24.27;46.76;101843.78;5097466;28;20541;-47
2021/06/08 03:37:31;;;;;;;13.50;9.50;;;;;;;24.16;47.44;101840.25;5095995;28;20906;-50
2021/06/08 03:39:58;;;;;;;13.00;9.33;;;;;;;24.58;46.08;101838.53;5097408;28;20810;-50
2021/06/08 03:42:26;;;;;;;14.87;10.50;;;;;;;24.46;46.97;101842.03;5096468;28;20492;-52
2021/06/08 03:44:53;;;;;;;11.93;8.60;;;;;;;24.24;47.96;101849.03;5097311;28;20455;-53
2021/06/08 03:47:21;;;;;;;11.13;8.77;;;;;;;24.33;47.39;101846.44;5095703;28;20936;-54
2021/06/08 03:49:49;;;;;;;15.33;9.70;;;;;;;24.62;46.44;101845.56;5096826;28;20499;-51
2021/06/08 03:52:16;;;;;;;14.40;9.33;;;;;;;24.03;48.22;101850.72;5095720;28;20474;-50
2021/06/08 03:54:43;;;;;;;13.90;9.30;;;;;;;24.29;47.13;101855.19;5097216;28;20455;-49
2021/06/08 03:57:11;;;;;;;17.97;9.70;;;;;;;24.16;47.25;101856.06;5095669;28;20475;-48
2021/06/08 03:59:38;;;;;;;16.10;10.87;;;;;;;24.21;47.09;101849.94;5096699;28;20486;-53
2021/06/08 04:02:06;;;;;;;191.63;109.90;;;;;;;24.45;47.25;101853.47;5095488;28;20477;-49
2021/06/08 04:04:34;;;;;;;20.20;14.00;;;;;;;24.09;47.61;101849.91;5097088;28;20454;-49
2021/06/08 04:07:02;;;;;;;18.00;12.17;;;;;;;24.28;46.90;101853.44;5095635;28;20786;-52
2021/06/08 04:09:29;;;;;;;16.80;11.17;;;;;;;23.89;48.26;101847.19;5096829;28;20767;-47
2021/06/08 04:11:56;;;;;;;25.33;18.13;;;;;;;24.38;46.77;101846.44;5095605;28;20464;-50
2021/06/08 04:14:23;;;;;;;14.57;10.63;;;;;;;24.41;46.13;101841.19;5096690;28;20512;-54
2021/06/08 04:16:51;;;;;;;14.10;10.20;;;;;;;24.46;46.80;101842.03;5095250;28;20461;-50
2021/06/08 04:19:18;;;;;;;18.97;11.70;;;;;;;24.37;47.26;101849.94;5096394;28;20935;-51
2021/06/08 04:21:51;;;;;;;14.03;9.00;;;;;;;24.49;46.83;101844.69;5092849;28;20488;-54
2021/06/08 04:24:18;;;;;;;15.80;11.30;;;;;;;24.33;46.68;101845.53;5096522;28;20554;-50
2021/06/08 04:26:45;;;;;;;16.17;10.33;;;;;;;24.16;47.22;101834.97;5095189;28;20458;-53
2021/06/08 04:29:12;;;;;;;12.90;9.80;;;;;;;24.19;47.28;101841.13;5095914;28;20482;-49
2021/06/08 04:31:39;;;;;;;17.13;10.47;;;;;;;24.46;46.07;101839.41;5095356;28;20900;-45
2021/06/08 04:34:06;;;;;;;16.63;9.60;;;;;;;24.06;46.66;101834.94;5095476;28;20484;-53
2021/06/08 04:36:34;;;;;;;58.43;35.40;;;;;;;24.31;47.35;101849.94;5095963;28;20476;-45
2021/06/08 04:39:03;;;;;;;11.97;9.40;;;;;;;24.03;47.26;101841.94;5095048;28;20480;-49
2021/06/08 04:41:30;;;;;;;17.47;9.37;;;;;;;24.39;45.91;101842.91;5096220;28;20489;-51
2021/06/08 04:43:57;;;;;;;14.73;9.77;;;;;;;24.14;46.92;101853.41;5094964;28;20485;-50
2021/06/08 04:46:24;;;;;;;17.37;12.40;;;;;;;24.41;45.79;101843.81;5096070;28;20459;-49
2021/06/08 04:48:51;;;;;;;16.00;10.93;;;;;;;24.10;46.89;101849.88;5095056;28;20483;-51
2021/06/08 04:51:20;;;;;;;17.33;9.80;;;;;;;24.36;46.62;101853.47;5096333;28;20463;-47
2021/06/08 04:53:47;;;;;;;20.40;12.57;;;;;;;24.27;47.20;101854.34;5094944;28;20487;-51
2021/06/08 04:56:15;;;;;;;12.57;9.70;;;;;;;23.92;47.47;101853.34;5095595;28;20783;-47
2021/06/08 04:58:42;;;;;;;9.20;7.70;;;;;;;23.73;47.90;101852.38;5094838;28;20487;-50
2021/06/08 05:01:13;;;;;;;10.90;8.40;;;;;;;23.58;47.91;101851.44;5095784;28;20924;-51
2021/06/08 05:03:42;;;;;;;12.27;8.67;;;;;;;23.95;47.09;101858.59;5094713;28;20580;-45
2021/06/08 05:06:12;;;;;;;16.07;9.80;;;;;;;24.09;47.70;101861.31;5095392;28;20464;-48
2021/06/08 05:08:41;;;;;;;15.23;8.00;;;;;;;24.10;46.98;101856.94;5094236;28;20490;-50
2021/06/08 05:11:13;;;;;;;11.23;8.00;;;;;;;23.87;47.18;101862.97;5095985;28;20449;-51
2021/06/08 05:13:46;;;;;;;16.43;9.90;;;;;;;24.19;46.50;101864.00;5069389;28;20484;-51
2021/06/08 05:16:13;;;;;;;15.60;9.57;;;;;;;24.32;45.93;101857.84;5095081;28;20456;-51
2021/06/08 05:18:42;;;;;;;11.30;8.03;;;;;;;23.87;46.62;101855.06;5092285;28;20487;-47
2021/06/08 05:21:10;;;;;;;10.90;8.00;;;;;;;23.86;46.70;101858.59;5095273;28;20454;-48
2021/06/08 05:23:38;;;;;;;10.97;8.47;;;;;;;23.63;47.35;101855.84;5091398;28;20482;-49
2021/06/08 05:26:05;;;;;;;13.83;8.70;;;;;;;23.68;47.71;101857.63;5094960;28;20460;-47
2021/06/08 05:28:34;;;;;;;14.60;8.33;;;;;;;24.16;46.89;101862.22;5093802;28;20490;-49
2021/06/08 05:31:02;;;;;;;9.53;7.50;;;;;;;23.79;47.32;101862.06;5095375;28;20906;-48
2021/06/08 05:33:29;;;;;;;19.20;8.70;;;;;;;24.02;47.07;101864.78;5093974;28;20488;-49
2021/06/08 05:35:57;;;;;;;13.23;8.10;;;;;;;23.86;46.86;101864.75;5094665;28;20472;-49
2021/06/08 05:38:31;;;;;;;11.73;8.90;;;;;;;23.95;47.20;101863.88;5094113;28;20485;-45
2021/06/08 05:41:02;;;;;;;15.70;9.27;;;;;;;24.18;46.34;101864.84;5095454;28;20456;-53
2021/06/08 05:43:29;;;;;;;11.30;8.13;;;;;;;23.86;47.03;101872.66;5094022;28;20495;-47
2021/06/08 05:45:56;;;;;;;11.20;8.67;;;;;;;24.10;46.85;101867.47;5098214;28;20919;-51
2021/06/08 05:48:26;;;;;;;12.93;8.97;;;;;;;24.55;45.81;101870.19;5098369;28;20508;-50
2021/06/08 05:50:54;;;;;;;14.10;8.90;;;;;;;24.40;46.63;101871.03;5099561;28;20453;-52
2021/06/08 05:53:22;;;;;;;14.80;7.90;;;;;;;24.35;46.01;101871.03;5097957;28;20488;-51
2021/06/08 05:55:51;;;;;;;17.30;8.03;;;;;;;24.24;46.60;101872.75;5099045;28;20456;-48
2021/06/08 05:58:22;;;;;;;12.93;9.57;;;;;;;24.59;45.61;101871.06;5097873;28;20477;-54
2021/06/08 06:00:50;;;;;;;11.63;7.83;;;;;;;24.38;46.01;101875.44;5099302;28;20462;-46
2021/06/08 06:03:18;;;;;;;15.93;8.47;;;;;;;24.37;45.94;101871.94;5098086;28;20476;-49
2021/06/08 06:05:47;;;;;;;17.23;8.93;;;;;;;24.83;45.49;101875.50;5098954;28;20447;-47
2021/06/08 06:08:14;;;;;;;10.57;7.93;;;;;;;24.39;46.48;101870.16;5097672;28;20472;-48
2021/06/08 06:10:42;;;;;;;12.30;8.10;;;;;;;24.37;46.48;101877.22;5098977;28;20486;-51
2021/06/08 06:13:13;;;;;;;16.37;8.43;;;;;;;24.32;47.04;101878.94;5097623;28;20484;-51
2021/06/08 06:15:40;;;;;;;14.00;7.97;;;;;;;24.14;47.10;101875.38;5098994;28;20757;-49
2021/06/08 06:18:08;;;;;;;10.50;8.00;;;;;;;24.44;46.52;101879.84;5097769;28;20520;-47
2021/06/08 06:20:36;;;;;;;10.50;7.67;;;;;;;24.34;46.94;101882.47;5098855;28;20460;-48
2021/06/08 06:23:04;;;;;;;11.10;7.93;;;;;;;24.61;45.89;101874.59;5097951;28;20502;-52
2021/06/08 06:25:31;;;;;;;11.70;7.80;;;;;;;24.39;46.91;101870.16;5098139;28;20463;-50
2021/06/08 06:27:58;;;;;;;10.27;8.13;;;;;;;24.60;46.44;101878.13;5097490;28;20475;-48
2021/06/08 06:30:26;;;;;;;11.30;8.00;;;;;;;25.18;45.16;101874.56;5098697;28;20463;-49
2021/06/08 06:32:53;;;;;;;14.17;7.77;;;;;;;25.51;44.11;101873.59;5097500;28;20482;-51
2021/06/08 06:35:20;;;;;;;10.00;7.60;;;;;;;25.36;44.40;101883.34;5098566;28;20463;-54
2021/06/08 06:37:49;;;;;;;11.53;7.77;;;;;;;25.27;44.70;101886.88;5097654;28;20478;-48
2021/06/08 06:40:22;;;;;;;11.93;7.73;;;;;;;25.01;45.14;101892.22;5098388;28;20795;-52
2021/06/08 06:42:52;;;;;;;11.67;8.70;;;;;;;24.68;45.88;101887.75;5097333;28;20484;-49
2021/06/08 06:45:20;;;;;;;15.00;7.97;;;;;;;25.12;45.21;101887.78;5098829;28;20462;-52
2021/06/08 06:47:48;;;;;;;12.97;7.90;;;;;;;25.40;44.87;101884.22;5097437;28;20478;-48
2021/06/08 06:50:16;;;;;;;12.20;8.17;;;;;;;25.22;44.97;101886.00;5098331;28;20474;-52
2021/06/08 06:52:44;;;;;;;13.40;8.53;;;;;;;25.55;44.57;101884.22;5096416;28;20486;-52
2021/06/08 06:55:12;;;;;;;12.40;8.10;;;;;;;25.53;44.10;101878.03;5098220;28;20488;-50
2021/06/08 06:57:42;;;;;;;21.57;11.50;;;;;;;25.62;45.20;101885.06;5094430;28;20484;-52
2021/06/08 07:00:11;;;;;;;31.07;14.50;;;;;;;25.33;45.91;101880.72;5098236;28;20506;-51
2021/06/08 07:02:40;;;;;;;11.90;8.87;;;;;;;25.37;46.50;101878.97;5096347;28;20489;-51
2021/06/08 07:05:09;;;;;;;12.10;8.30;;;;;;;26.02;43.69;101886.66;5098222;28;20781;-48
2021/06/08 07:07:37;;;;;;;11.80;8.57;;;;;;;25.55;44.47;101889.50;5096117;28;20484;-50
2021/06/08 07:10:06;;;;;;;14.00;8.00;;;;;;;25.81;44.57;101887.63;5098113;28;20475;-47
2021/06/08 07:12:33;;;;;;;16.63;8.40;;;;;;;25.64;44.61;101887.69;5096324;28;20762;-53
2021/06/08 07:15:02;;;;;;;11.13;7.63;;;;;;;25.35;44.88;101900.06;5097930;28;20482;-47
2021/06/08 07:17:29;;;;;;;13.20;8.50;;;;;;;25.54;44.47;101894.78;5096174;28;20488;-47
2021/06/08 07:19:57;;;;;;;12.60;7.43;;;;;;;25.75;44.24;101894.69;5097746;28;20580;-51
2021/06/08 07:22:25;;;;;;;13.47;8.17;;;;;;;25.36;45.58;101909.75;5092999;28;21017;-44
2021/06/08 07:24:53;;;;;;;13.50;7.53;;;;;;;26.15;43.90;101908.63;5097441;28;20460;-50
2021/06/08 07:27:20;;;;;;;11.70;8.13;;;;;;;25.96;43.27;101911.38;5095911;28;20480;-48
2021/06/08 07:29:48;;;;;;;11.00;7.13;;;;;;;25.97;43.46;101905.19;5097288;28;20486;-48
2021/06/08 07:32:20;;;;;;;16.00;8.17;;;;;;;26.39;43.08;101902.34;5095993;28;20484;-47
2021/06/08 07:34:49;;;;;;;14.57;9.90;;;;;;;26.54;42.93;101908.41;5097444;28;20468;-49
2021/06/08 07:37:20;;;;;;;14.00;8.10;;;;;;;26.25;43.50;101910.34;5094558;28;20483;-49
2021/06/08 07:39:49;;;;;;;13.00;7.60;;;;;;;25.92;44.39;101901.69;5097528;28;20481;-53
2021/06/08 07:42:19;;;;;;;12.10;6.77;;;;;;;26.34;43.69;101906.78;5095949;28;20784;-53
2021/06/08 07:44:49;;;;;;;15.57;7.90;;;;;;;26.13;44.48;101916.56;5094884;28;20468;-51
2021/06/08 07:47:19;;;;;;;17.00;11.03;;;;;;;26.37;44.30;101909.41;5095105;28;20512;-47
2021/06/08 07:49:50;;;;;;;24.27;9.53;;;;;;;26.64;44.28;101911.84;5097125;28;20477;-55
2021/06/08 07:52:19;;;;;;;27.07;17.40;;;;;;;26.53;43.92;101910.19;5097149;28;20932;-51
2021/06/08 07:54:47;;;;;;;20.67;11.60;;;;;;;26.80;42.88;101902.03;5117076;28;20467;-54
2021/06/08 07:57:14;;;;;;;16.10;9.40;;;;;;;26.46;43.68;101905.84;5115601;28;20485;-49
2021/06/08 07:59:43;;;;;;;22.60;14.30;;;;;;;27.03;42.87;101908.94;5116972;28;20487;-51
2021/06/08 08:02:10;;;;;;;14.13;10.10;;;;;;;26.76;43.55;101909.13;5091698;28;20497;-49
2021/06/08 08:04:40;;;;;;;18.73;10.80;;;;;;;26.68;43.41;101910.94;5096815;28;20469;-51
2021/06/08 08:07:08;;;;;;;27.30;17.77;;;;;;;27.02;42.81;101918.63;5094733;28;20469;-51
2021/06/08 08:09:36;;;;;;;35.90;17.27;;;;;;;27.20;42.57;101909.66;5095764;28;20492;-50
2021/06/08 08:12:04;;;;;;;16.33;9.73;;;;;;;26.65;43.51;101924.19;5095220;28;20480;-47
2021/06/08 08:14:32;;;;;;;19.00;13.00;;;;;;;26.91;43.24;101918.72;5108252;28;20503;-48
2021/06/08 08:17:00;;;;;;;28.57;13.80;;;;;;;26.83;43.14;101915.25;5107998;28;20465;-48
2021/06/08 08:19:27;;;;;;;18.50;11.67;;;;;;;26.56;43.27;101912.78;5096481;28;20473;-50
2021/06/08 08:21:55;;;;;;;30.10;15.70;;;;;;;27.02;42.67;101915.13;5099200;28;20468;-52
2021/06/08 08:24:23;;;;;;;13.83;8.03;;;;;;;27.32;42.60;101911.28;5096227;28;20453;-50
2021/06/08 08:26:50;;;;;;;15.90;10.20;;;;;;;27.69;41.02;101901.22;5094148;28;20464;-50
2021/06/08 08:29:17;;;;;;;16.30;9.77;;;;;;;27.50;42.29;101910.22;5096088;28;20481;-47
2021/06/08 08:31:44;;;;;;;23.30;13.07;;;;;;;27.58;42.02;101901.34;5103182;28;20912;-50
2021/06/08 08:34:11;;;;;;;13.17;9.17;;;;;;;28.01;42.42;101907.88;5116581;28;20537;-46
2021/06/08 08:36:39;;;;;;;14.17;10.20;;;;;;;28.00;41.49;101911.41;5114708;28;20460;-50
2021/06/08 08:39:09;;;;;;;16.80;9.60;;;;;;;27.52;41.24;101906.69;5116120;28;20488;-48
2021/06/08 08:41:42;;;;;;;9.30;7.00;;;;;;;27.92;40.89;101910.66;5116767;28;20761;-48
2021/06/08 08:44:10;;;;;;;11.20;7.37;;;;;;;27.85;40.25;101909.84;5116052;28;20492;-51
2021/06/08 08:46:37;;;;;;;9.70;6.73;;;;;;;28.69;39.16;101909.53;5111790;28;20476;-47
2021/06/08 08:49:05;;;;;;;10.80;6.50;;;;;;;27.95;39.05;101900.00;5095453;28;20490;-47
2021/06/08 08:51:33;;;;;;;11.20;7.10;;;;;;;27.89;39.11;101906.28;5095686;28;20464;-51
2021/06/08 08:54:01;;;;;;;24.27;9.80;;;;;;;28.46;38.71;101899.31;5094306;28;20477;-49
2021/06/08 08:56:32;;;;;;;9.80;6.10;;;;;;;28.96;37.77;101899.38;5095593;28;20453;-56
2021/06/08 08:59:04;;;;;;;10.47;6.40;;;;;;;28.36;38.06;101895.91;5094061;28;20477;-50
2021/06/08 09:01:31;;;;;;;13.23;6.23;;;;;;;28.75;37.12;101891.78;5095828;28;20457;-54
2021/06/08 09:03:59;;;;;;;8.40;4.93;;;;;;;28.41;38.68;101896.69;5094128;28;20536;-47
2021/06/08 09:06:26;;;;;;;6.53;4.60;;;;;;;29.11;37.82;101894.69;5095349;28;20461;-50
2021/06/08 09:08:53;;;;;;;7.83;4.60;;;;;;;28.43;39.65;101897.56;5093918;28;20478;-47
2021/06/08 09:11:21;;;;;;;7.63;5.00;;;;;;;28.72;36.43;101892.69;5095540;28;20460;-47
2021/06/08 09:13:49;;;;;;;13.67;4.40;;;;;;;28.32;35.54;101894.19;5094223;28;20484;-47
2021/06/08 09:16:17;;;;;;;11.43;5.07;;;;;;;28.26;36.00;101899.59;5095216;28;20481;-51
2021/06/08 09:18:44;;;;;;;29.57;11.13;;;;;;;28.73;34.37;101904.16;5092872;28;21007;-51
2021/06/08 09:21:18;;;;;;;10.23;7.20;;;;;;;29.01;34.28;101901.94;5095468;28;20469;-52
2021/06/08 09:23:46;;;;;;;25.60;10.23;;;;;;;28.83;35.37;101900.47;5093891;28;20486;-50
2021/06/08 09:26:15;;;;;;;14.67;6.87;;;;;;;28.66;35.87;101895.44;5106206;28;20475;-52
2021/06/08 09:28:42;;;;;;;10.87;6.17;;;;;;;29.19;35.32;101890.13;5105185;28;20477;-53
2021/06/08 09:31:13;;;;;;;10.07;5.47;;;;;;;28.81;35.12;101896.97;5100910;28;20462;-49
2021/06/08 09:33:42;;;;;;;11.50;5.80;;;;;;;28.96;35.08;101890.53;5089599;28;20998;-50
2021/06/08 09:36:11;;;;;;;14.07;6.20;;;;;;;28.84;34.49;101886.28;5095627;28;20461;-47
2021/06/08 09:38:42;;;;;;;11.33;8.10;;;;;;;29.01;35.17;101888.66;5104469;28;20467;-48
2021/06/08 09:41:23;;;;;;;8.90;5.70;;;;;;;28.85;35.33;101890.69;5115677;28;20449;-49
2021/06/08 09:43:59;;;;;;;12.40;6.30;;;;;;;28.52;35.88;101891.25;5113841;28;20488;-49
2021/06/08 09:46:34;;;;;;;9.70;5.93;;;;;;;29.50;34.87;101878.94;5114936;28;20467;-50
2021/06/08 09:49:04;;;;;;;12.90;7.93;;;;;;;29.62;35.37;101879.56;5107731;28;20468;-49
2021/06/08 09:51:47;;;;;;;12.73;6.37;;;;;;;28.63;34.78;101877.78;5110330;28;20461;-52
2021/06/08 09:54:25;;;;;;;16.53;6.67;;;;;;;29.27;34.06;101870.50;5094524;28;20465;-46
2021/06/08 09:57:10;;;;;;;8.47;5.80;;;;;;;29.36;35.03;101872.97;5093506;28;20467;-49
2021/06/08 09:59:42;;;;;;;11.23;7.70;;;;;;;29.54;34.68;101870.88;5094909;28;20477;-48
2021/06/08 10:02:29;;;;;;;11.27;6.40;;;;;;;29.57;34.75;101869.03;5092945;28;20932;-52
2021/06/08 10:05:21;;;;;;;11.40;5.33;;;;;;;28.86;34.25;101867.72;5094858;28;20461;-47
2021/06/08 10:07:49;;;;;;;11.37;7.03;;;;;;;29.57;33.61;101871.69;5111899;28;20477;-45
2021/06/08 10:10:19;;;;;;;10.37;6.10;;;;;;;29.72;34.19;101873.16;5115247;28;20538;-50
2021/06/08 10:12:57;;;;;;;11.23;6.50;;;;;;;30.00;34.04;101869.88;5113736;28;20483;-48
2021/06/08 10:15:26;;;;;;;13.47;5.87;;;;;;;29.91;34.19;101875.41;5114970;28;20462;-52
2021/06/08 10:17:59;;;;;;;8.50;5.43;;;;;;;30.47;33.77;101871.47;5107885;28;20897;-50
2021/06/08 10:20:29;;;;;;;7.50;4.10;;;;;;;30.21;32.19;101873.00;5094980;28;20446;-48
2021/06/08 10:22:57;;;;;;;10.07;5.40;;;;;;;30.36;32.85;101873.53;5093063;28;20486;-50
2021/06/08 10:25:24;;;;;;;11.67;5.27;;;;;;;30.13;32.10;101869.63;5094323;28;20458;-46
2021/06/08 10:27:52;;;;;;;12.43;6.73;;;;;;;30.28;32.32;101871.03;5093377;28;20473;-50
2021/06/08 10:30:19;;;;;;;10.07;5.73;;;;;;;30.61;32.83;101867.59;5094954;28;20483;-53
2021/06/08 10:32:47;;;;;;;7.23;3.87;;;;;;;30.83;31.28;101876.81;5095933;28;20489;-48
2021/06/08 10:35:36;;;;;;;6.20;3.50;;;;;;;29.58;34.92;101869.91;5098263;28;20468;-52
2021/06/08 10:38:03;;;;;;;6.70;3.77;;;;;;;29.76;34.09;101866.88;5096911;28;20505;-48
2021/06/08 10:40:33;;;;;;;8.53;5.30;;;;;;;30.42;32.40;101871.59;5098368;28;20902;-50
2021/06/08 10:43:01;;;;;;;11.13;5.37;;;;;;;30.87;32.46;101866.06;5096732;28;20474;-48
2021/06/08 10:45:33;;;;;;;7.70;4.67;;;;;;;30.93;31.60;101865.91;5097986;28;20468;-51
2021/06/08 10:48:06;;;;;;;9.23;4.40;;;;;;;30.21;32.75;101862.34;5096618;28;20476;-50
2021/06/08 10:50:37;;;;;;;18.50;7.93;;;;;;;30.57;32.44;101864.13;5095463;28;20492;-52
2021/06/08 10:53:06;;;;;;;11.70;6.50;;;;;;;30.51;33.17;101853.66;5089847;28;20508;-52
2021/06/08 10:55:38;;;;;;;12.37;5.00;;;;;;;30.43;32.27;101851.16;5097048;28;20567;-49
2021/06/08 10:58:07;;;;;;;9.43;4.63;;;;;;;30.33;32.68;101849.66;5072769;28;20487;-54
2021/06/08 11:00:39;;;;;;;18.83;8.47;;;;;;;30.58;31.94;101849.91;5096635;28;20896;-55
2021/06/08 11:03:11;;;;;;;9.33;4.80;;;;;;;30.17;33.79;101847.34;5093153;28;20488;-51
2021/06/08 11:05:56;;;;;;;13.83;5.93;;;;;;;31.02;32.04;101848.81;5096855;28;20458;-51
2021/06/08 11:08:59;;;;;;;9.90;4.70;;;;;;;30.69;31.85;101854.97;5095047;28;20477;-57
2021/06/08 11:11:47;;;;;;;8.20;5.03;;;;;;;30.68;32.41;101845.25;5096388;28;20465;-55
2021/06/08 11:14:58;;;;;;;7.63;4.07;;;;;;;30.07;32.95;101853.75;5096287;28;21248;-50
2021/06/08 11:17:34;;;;;;;7.67;4.37;;;;;;;30.45;32.06;101849.38;5093935;28;20573;-50
2021/06/08 11:20:04;;;;;;;9.70;3.90;;;;;;;31.13;29.00;101858.25;5096191;28;20473;-49
2021/06/08 11:22:56;;;;;;;9.80;4.90;;;;;;;31.46;29.64;101844.03;5093968;28;20479;-51
2021/06/08 11:25:38;;;;;;;8.00;4.43;;;;;;;31.50;30.12;101851.03;5095987;28;20459;-53
2021/06/08 11:28:07;;;;;;;6.50;3.90;;;;;;;30.92;29.52;101848.19;5094776;28;20947;-48